Time;durP1;ratioP1;P1;durP2;ratioP2;P2;SDS_P1;SDS_P2;PMS_P1;PMS_P2;Temp;Humidity;BMP_temperature;BMP_pressure;BME280_temperature;BME280_humidity;BME280_pressure;Samples;Min_cycle;Max_cycle;Signal;HPM_P1;HPM_P2
2023/01/10 00:02:30;;;;;;;20.30;2.97;;;10.90;99.90;;;;;;10441189;28;20130;-26
2023/01/10 00:07:33;;;;;;;18.33;2.25;;;9.60;99.90;;;;;;10459170;28;20543;-22
2023/01/10 00:17:55;;;;;;;16.13;2.95;;;9.70;99.90;;;;;;10465249;28;20049;-23
2023/01/10 00:22:58;;;;;;;25.77;2.55;;;9.20;99.90;;;;;;10455336;28;20098;-24
2023/01/10 00:28:04;;;;;;;12.20;2.72;;;10.10;99.90;;;;;;10449772;28;20044;-24
2023/01/10 00:33:06;;;;;;;17.65;2.35;;;10.10;99.90;;;;;;10452945;28;20489;-25
2023/01/10 00:38:10;;;;;;;18.20;2.70;;;10.00;99.90;;;;;;10438732;28;20909;-24
2023/01/10 00:48:43;;;;;;;33.30;4.40;;;9.70;99.90;;;;;;10362448;28;20561;-25
2023/01/10 00:53:46;;;;;;;34.60;3.90;;;9.20;99.90;;;;;;10436965;28;20081;-24
2023/01/10 00:58:48;;;;;;;24.02;3.78;;;9.40;99.90;;;;;;10435259;28;20049;-26
2023/01/10 01:03:50;;;;;;;29.63;3.20;;;9.40;99.90;;;;;;10445164;28;20067;-24
2023/01/10 01:08:53;;;;;;;16.05;1.73;;;9.10;99.90;;;;;;10455180;28;20107;-23
2023/01/10 01:13:55;;;;;;;29.65;3.53;;;10.20;99.90;;;;;;10456655;28;20061;-24
2023/01/10 01:18:57;;;;;;;14.43;2.42;;;9.30;99.90;;;;;;10455712;28;20140;-26
2023/01/10 01:24:00;;;;;;;33.95;3.50;;;9.50;99.90;;;;;;10456000;28;20041;-25
2023/01/10 01:29:02;;;;;;;21.23;3.00;;;9.10;99.90;;;;;;10443168;28;20081;-24
2023/01/10 01:34:04;;;;;;;36.50;4.10;;;9.40;99.90;;;;;;10455540;28;20045;-23
2023/01/10 01:39:07;;;;;;;26.42;3.78;;;8.90;99.90;;;;;;10434821;28;20049;-25
2023/01/10 01:44:12;;;;;;;;;;;8.90;99.90;;;;;;10442948;28;20126;-25
2023/01/10 01:49:18;;;;;;;14.45;2.88;;;9.20;99.90;;;;;;10426241;28;19921;-25
2023/01/10 01:54:21;;;;;;;24.17;3.60;;;9.00;99.90;;;;;;10444861;28;20068;-25
2023/01/10 01:59:27;;;;;;;14.27;2.47;;;9.40;99.90;;;;;;10440165;28;20049;-26
2023/01/10 02:04:35;;;;;;;16.55;4.40;;;9.10;99.90;;;;;;10444053;28;20442;-24
2023/01/10 02:09:43;;;;;;;19.60;2.42;;;9.50;99.90;;;;;;10458703;28;20430;-23
2023/01/10 02:14:47;;;;;;;19.70;2.85;;;9.90;99.90;;;;;;10459151;28;20147;-26
2023/01/10 02:19:54;;;;;;;27.25;3.55;;;9.70;99.90;;;;;;10453604;28;20050;-25
2023/01/10 02:25:40;;;;;;;22.02;2.85;;;9.50;99.90;;;;;;10438850;28;20477;-26
2023/01/10 02:31:00;;;;;;;27.63;3.78;;;9.50;99.90;;;;;;10431521;28;20119;-25
2023/01/10 02:36:16;;;;;;;23.80;3.05;;;9.30;99.90;;;;;;10452755;28;20082;-24
2023/01/10 02:41:27;;;;;;;25.45;3.97;;;9.60;99.90;;;;;;10445534;28;20041;-25
2023/01/10 02:46:31;;;;;;;28.30;3.42;;;9.30;99.90;;;;;;10452000;28;20037;-24
2023/01/10 02:51:34;;;;;;;23.27;3.33;;;9.50;99.90;;;;;;10436398;28;20084;-24
2023/01/10 02:57:02;;;;;;;;;;;9.30;99.90;;;;;;10433045;28;20056;-24
2023/01/10 03:02:14;;;;;;;18.98;3.67;;;9.80;99.90;;;;;;10444014;28;19920;-26
2023/01/10 03:07:21;;;;;;;22.38;3.03;;;9.00;99.90;;;;;;10444248;28;20091;-24
2023/01/10 03:12:27;;;;;;;20.60;2.97;;;9.00;99.90;;;;;;10449917;28;20524;-24
2023/01/10 03:17:30;;;;;;;19.52;2.60;;;10.10;99.90;;;;;;10436330;28;20057;-26
2023/01/10 03:22:37;;;;;;;25.48;3.58;;;9.30;99.90;;;;;;10444949;28;20047;-24
2023/01/10 03:27:46;;;;;;;12.48;2.63;;;9.60;99.90;;;;;;10440393;28;20057;-25
2023/01/10 03:32:48;;;;;;;19.45;3.17;;;9.70;99.90;;;;;;10444181;28;20048;-25
2023/01/10 03:37:57;;;;;;;22.08;3.80;;;10.00;99.90;;;;;;10458137;28;20054;-25
2023/01/10 03:48:26;;;;;;;26.58;2.85;;;9.20;99.90;;;;;;10438834;28;20049;-24
2023/01/10 03:53:30;;;;;;;25.67;3.17;;;9.10;99.90;;;;;;10442650;28;20049;-23
2023/01/10 03:58:32;;;;;;;20.70;3.08;;;10.40;99.90;;;;;;10432282;28;20547;-25
2023/01/10 04:03:34;;;;;;;24.60;5.18;;;9.20;99.90;;;;;;10454744;28;20417;-24
2023/01/10 04:08:37;;;;;;;22.55;4.35;;;9.40;99.90;;;;;;10446332;28;20045;-24
2023/01/10 04:13:40;;;;;;;12.38;2.10;;;10.10;99.90;;;;;;10450444;28;20127;-24
2023/01/10 04:18:42;;;;;;;24.65;4.45;;;11.60;99.90;;;;;;10454634;28;20061;-25
2023/01/10 04:23:46;;;;;;;15.65;3.78;;;10.20;99.90;;;;;;10450238;28;20056;-25
2023/01/10 04:28:48;;;;;;;24.20;3.95;;;9.70;99.90;;;;;;10447806;28;20115;-25
2023/01/10 04:33:50;;;;;;;30.57;3.90;;;9.80;99.90;;;;;;10456485;28;20102;-24
2023/01/10 04:38:53;;;;;;;26.20;2.47;;;9.50;99.90;;;;;;10447927;28;20467;-25
2023/01/10 04:43:55;;;;;;;29.15;4.78;;;9.70;99.90;;;;;;10442915;28;20049;-25
2023/01/10 04:48:58;;;;;;;21.55;3.08;;;8.70;99.90;;;;;;10450891;28;20041;-25
2023/01/10 04:54:01;;;;;;;25.42;3.15;;;9.30;99.90;;;;;;10463780;28;20485;-25
2023/01/10 04:59:05;;;;;;;20.08;3.28;;;8.90;99.90;;;;;;10452197;28;20065;-28
2023/01/10 05:04:07;;;;;;;17.48;2.63;;;8.90;99.90;;;;;;10443096;28;20108;-24
2023/01/10 05:09:10;;;;;;;20.57;3.03;;;11.00;99.90;;;;;;10471047;28;20053;-25
2023/01/10 05:14:12;;;;;;;11.43;2.70;;;9.70;99.90;;;;;;10451893;28;20093;-24
2023/01/10 05:19:14;;;;;;;21.13;2.53;;;10.10;99.90;;;;;;10446409;28;20536;-25
2023/01/10 05:24:17;;;;;;;12.32;2.65;;;10.80;99.90;;;;;;10447048;28;20044;-25
2023/01/10 05:29:19;;;;;;;25.77;2.40;;;9.80;99.90;;;;;;10421753;28;20045;-25
2023/01/10 05:34:21;;;;;;;17.80;2.72;;;10.10;99.90;;;;;;10425203;28;20045;-25
2023/01/10 05:39:24;;;;;;;12.48;1.77;;;10.50;99.90;;;;;;10418941;28;20144;-25
2023/01/10 05:44:26;;;;;;;17.42;2.80;;;13.30;99.90;;;;;;10426634;28;20080;-24
2023/01/10 05:49:28;;;;;;;10.23;1.75;;;12.50;99.90;;;;;;10422491;28;20038;-23
2023/01/10 05:54:31;;;;;;;10.77;2.40;;;14.80;92.10;;;;;;10432235;28;20049;-25
2023/01/10 05:59:33;;;;;;;11.02;2.30;;;14.40;94.70;;;;;;10444970;28;20088;-25
2023/01/10 06:04:34;;;;;;;7.30;1.75;;;13.80;94.80;;;;;;10439689;28;20072;-24
2023/01/10 06:09:38;;;;;;;7.75;1.95;;;14.80;92.60;;;;;;10445230;28;20096;-26
2023/01/10 06:14:40;;;;;;;21.42;3.47;;;13.90;96.10;;;;;;10445012;28;20045;-26
2023/01/10 06:19:42;;;;;;;10.40;1.90;;;15.20;89.60;;;;;;10426745;28;20080;-24
2023/01/10 06:24:45;;;;;;;;;;;14.90;92.00;;;;;;10425876;28;20685;-26
2023/01/10 06:29:47;;;;;;;17.52;3.22;;;13.70;87.40;;;;;;10457281;28;20399;-25
2023/01/10 06:34:49;;;;;;;15.00;3.15;;;12.50;99.90;;;;;;10439895;28;20686;-25
2023/01/10 06:39:52;;;;;;;22.15;3.45;;;12.00;99.90;;;;;;10448771;28;20567;-25
2023/01/10 06:44:54;;;;;;;15.48;2.80;;;12.20;99.90;;;;;;10449282;28;20052;-25
2023/01/10 06:49:56;;;;;;;27.42;3.80;;;12.20;99.90;;;;;;10454331;28;20156;-26
2023/01/10 06:54:59;;;;;;;20.93;2.20;;;10.10;99.90;;;;;;10452382;28;20049;-24
2023/01/10 07:00:02;;;;;;;12.43;2.10;;;11.80;99.90;;;;;;10439713;28;20378;-24
2023/01/10 07:15:29;;;;;;;8.23;1.83;;;16.90;77.10;;;;;;10489083;27;20126;-24
2023/01/10 07:20:31;;;;;;;7.63;1.77;;;17.00;77.40;;;;;;10491400;28;20088;-24
2023/01/10 07:25:33;;;;;;;6.33;2.10;;;16.30;82.30;;;;;;10465603;28;20045;-24
2023/01/10 07:30:37;;;;;;;18.83;2.87;;;17.50;73.40;;;;;;10468445;28;20056;-24
2023/01/10 07:35:39;;;;;;;16.73;2.83;;;16.10;84.30;;;;;;10458995;28;20490;-24
2023/01/10 07:40:41;;;;;;;10.73;2.28;;;14.90;92.70;;;;;;10470831;28;20102;-26
2023/01/10 07:45:44;;;;;;;8.97;2.33;;;17.00;80.00;;;;;;10473377;28;20045;-25
2023/01/10 07:50:46;;;;;;;11.23;2.40;;;18.00;70.90;;;;;;10493440;28;20489;-26
2023/01/10 07:55:49;;;;;;;10.87;2.73;;;18.30;69.60;;;;;;10491469;28;20453;-24
2023/01/10 08:00:52;;;;;;;47.90;4.60;;;18.30;69.60;;;;;;10489772;28;20048;-26
2023/01/10 08:05:59;;;;;;;48.78;6.75;;;18.30;68.60;;;;;;10469252;28;20474;-24
2023/01/10 08:11:02;;;;;;;41.28;7.85;;;18.10;69.00;;;;;;10474102;28;20056;-26
2023/01/10 08:16:08;;;;;;;41.20;7.38;;;18.30;67.80;;;;;;10468088;28;20052;-23
2023/01/10 08:21:10;;;;;;;26.77;5.30;;;18.40;66.70;;;;;;10481945;28;20048;-25
2023/01/10 08:26:12;;;;;;;31.13;4.68;;;18.40;65.30;;;;;;10434969;28;20473;-24
2023/01/10 08:31:15;;;;;;;28.15;4.97;;;18.30;64.50;;;;;;10425221;28;20049;-27
2023/01/10 08:36:18;;;;;;;16.85;3.60;;;18.30;63.50;;;;;;10424390;28;20132;-26
2023/01/10 08:41:20;;;;;;;27.50;4.20;;;18.30;62.80;;;;;;10421784;28;20119;-25
2023/01/10 08:46:23;;;;;;;19.83;4.53;;;18.30;62.10;;;;;;10433037;28;20045;-24
2023/01/10 08:51:26;;;;;;;20.48;5.43;;;18.20;62.00;;;;;;10432990;28;20631;-27
2023/01/10 08:56:28;;;;;;;29.77;6.15;;;18.20;61.30;;;;;;10451370;28;20442;-24
2023/01/10 09:01:31;;;;;;;17.80;3.70;;;18.00;61.80;;;;;;10433881;28;20069;-24
2023/01/10 09:06:33;;;;;;;14.15;3.50;;;18.10;60.90;;;;;;10435213;28;20136;-24
2023/01/10 09:11:34;;;;;;;24.23;4.03;;;18.10;60.80;;;;;;10427292;28;20073;-24
2023/01/10 09:16:38;;;;;;;18.17;3.67;;;18.00;61.20;;;;;;10441735;28;20068;-24
2023/01/10 09:21:39;;;;;;;16.52;3.45;;;17.70;62.30;;;;;;10437725;28;20143;-26
2023/01/10 09:26:41;;;;;;;17.67;3.23;;;17.60;63.10;;;;;;10443984;28;20537;-24
2023/01/10 09:31:45;;;;;;;22.48;4.97;;;17.70;62.40;;;;;;10437368;28;20061;-27
2023/01/10 09:36:46;;;;;;;28.70;4.78;;;17.60;62.40;;;;;;10432566;28;20048;-27
2023/01/10 09:42:13;;;;;;;19.33;4.40;;;17.40;63.30;;;;;;10432779;28;20635;-26
2023/01/10 09:47:24;;;;;;;29.85;4.72;;;17.70;61.20;;;;;;10433502;28;20061;-25
2023/01/10 09:52:30;;;;;;;18.73;3.50;;;17.80;60.40;;;;;;10447890;28;20059;-25
2023/01/10 09:57:32;;;;;;;20.98;3.13;;;17.90;60.10;;;;;;10455871;28;20110;-26
2023/01/10 10:02:39;;;;;;;;;;;17.70;60.90;;;;;;10472307;28;20534;-27
2023/01/10 10:07:41;;;;;;;19.73;3.92;;;17.80;60.00;;;;;;10430885;28;19951;-24
2023/01/10 10:12:48;;;;;;;11.85;2.95;;;17.40;60.00;;;;;;10441127;28;20150;-24
2023/01/10 10:18:01;;;;;;;11.60;4.00;;;15.80;67.80;;;;;;10431823;28;20085;-27
2023/01/10 10:23:15;;;;;;;14.80;4.38;;;16.10;69.30;;;;;;10436240;28;20041;-27
2023/01/10 10:28:44;;;;;;;19.98;5.50;;;17.70;60.20;;;;;;10433245;28;20049;-26
2023/01/10 10:33:56;;;;;;;18.17;4.93;;;17.70;59.60;;;;;;10429863;28;20057;-27
2023/01/10 10:39:01;;;;;;;17.67;4.78;;;17.80;58.60;;;;;;10430543;28;20132;-27
2023/01/10 10:44:25;;;;;;;18.10;3.38;;;17.90;58.90;;;;;;10438497;28;20045;-27
2023/01/10 10:49:37;;;;;;;11.07;2.83;;;17.80;57.90;;;;;;10449797;28;20127;-27
2023/01/10 10:54:39;;;;;;;17.80;2.40;;;17.80;57.60;;;;;;10434205;28;20049;-24
2023/01/10 10:59:43;;;;;;;13.95;2.92;;;17.80;57.70;;;;;;10451436;28;20120;-24
2023/01/10 11:04:47;;;;;;;14.98;4.60;;;17.80;57.30;;;;;;10430979;28;20163;-24
2023/01/10 11:09:53;;;;;;;7.10;2.10;;;17.60;57.30;;;;;;10439720;28;20052;-25
2023/01/10 11:14:55;;;;;;;9.02;2.17;;;17.80;57.70;;;;;;10427772;28;20063;-27
2023/01/10 11:20:00;;;;;;;17.13;3.63;;;17.60;58.00;;;;;;10427007;28;20076;-25
2023/01/10 11:25:03;;;;;;;11.65;3.13;;;17.90;57.10;;;;;;10433750;28;20057;-25
2023/01/10 11:30:07;;;;;;;;;;;18.10;56.60;;;;;;10431745;28;20416;-25
2023/01/10 11:35:21;;;;;;;11.07;3.08;;;17.00;58.90;;;;;;10433078;28;19967;-27
2023/01/10 11:40:25;;;;;;;15.32;2.72;;;17.70;57.70;;;;;;10432772;28;20041;-27
2023/01/10 11:45:34;;;;;;;7.90;2.15;;;18.70;55.70;;;;;;10427834;28;20521;-25
2023/01/10 11:50:44;;;;;;;8.88;2.95;;;18.90;54.80;;;;;;10417840;28;20050;-26
2023/01/10 11:55:48;;;;;;;15.48;2.90;;;19.00;54.40;;;;;;10416075;28;20065;-29
2023/01/10 12:00:50;;;;;;;13.65;3.03;;;19.20;54.00;;;;;;10430503;28;20052;-25
2023/01/10 12:05:56;;;;;;;8.90;1.98;;;19.20;54.70;;;;;;10429065;28;20052;-25
2023/01/10 12:11:01;;;;;;;18.20;3.13;;;19.40;54.90;;;;;;10433341;28;20501;-24
2023/01/10 12:16:21;;;;;;;15.57;3.10;;;19.30;54.60;;;;;;10442348;28;20075;-25
2023/01/10 12:21:30;;;;;;;17.20;3.47;;;19.30;54.30;;;;;;10442931;28;20130;-27
2023/01/10 12:26:34;;;;;;;13.13;2.72;;;17.50;56.50;;;;;;10451005;28;20132;-25
2023/01/10 12:31:39;;;;;;;11.18;2.92;;;18.70;55.70;;;;;;10442780;28;20416;-26
2023/01/10 12:36:51;;;;;;;10.23;2.85;;;19.10;54.80;;;;;;10440202;28;20806;-25
2023/01/10 12:47:29;;;;;;;11.65;2.67;;;18.50;56.00;;;;;;10426645;28;20485;-25
2023/01/10 12:52:45;;;;;;;12.63;2.92;;;18.60;55.30;;;;;;10428382;28;20052;-24
2023/01/10 12:57:52;;;;;;;17.42;3.33;;;18.70;54.90;;;;;;10430857;28;20060;-25
2023/01/10 13:02:55;;;;;;;10.57;2.55;;;18.20;56.20;;;;;;10428467;28;20049;-25
2023/01/10 13:08:04;;;;;;;5.40;1.40;;;18.50;54.90;;;;;;10443741;28;20087;-24
2023/01/10 13:13:13;;;;;;;11.48;2.08;;;18.70;54.90;;;;;;10448381;28;20053;-25
2023/01/10 13:18:20;;;;;;;18.10;2.25;;;18.70;54.90;;;;;;10431688;28;20504;-25
2023/01/10 13:23:29;;;;;;;8.50;2.15;;;18.50;56.00;;;;;;10444820;28;20048;-25
2023/01/10 13:28:33;;;;;;;12.95;2.28;;;18.70;55.70;;;;;;10432953;28;20052;-25
2023/01/10 13:33:50;;;;;;;9.80;2.75;;;18.40;56.40;;;;;;10442070;28;20052;-25
2023/01/10 13:38:56;;;;;;;5.88;1.70;;;18.80;56.20;;;;;;10439319;28;20045;-25
2023/01/10 13:44:04;;;;;;;20.58;1.67;;;19.00;55.60;;;;;;10445643;28;20053;-27
2023/01/10 13:49:43;;;;;;;8.30;1.75;;;19.10;56.30;;;;;;10443752;28;20137;-25
2023/01/10 13:54:57;;;;;;;9.73;1.85;;;18.90;56.20;;;;;;10408006;28;20048;-24
2023/01/10 14:05:21;;;;;;;11.43;2.37;;;18.60;57.70;;;;;;10429342;28;20128;-22
2023/01/10 14:10:26;;;;;;;18.42;4.13;;;18.50;58.40;;;;;;10439492;28;20484;-25
2023/01/10 14:15:31;;;;;;;5.57;1.90;;;18.40;59.90;;;;;;10428727;28;20045;-26
2023/01/10 14:20:35;;;;;;;12.60;3.10;;;18.50;59.50;;;;;;10443638;28;20691;-26
2023/01/10 14:25:38;;;;;;;11.57;2.70;;;18.50;60.20;;;;;;10444631;28;20045;-26
2023/01/10 14:30:40;;;;;;;5.55;1.77;;;18.40;60.90;;;;;;10422995;28;20132;-27
2023/01/10 14:35:45;;;;;;;10.35;2.60;;;18.30;61.60;;;;;;10437358;28;20060;-28
2023/01/10 14:40:51;;;;;;;6.97;2.15;;;17.90;62.70;;;;;;10429076;28;20060;-25
2023/01/10 14:45:59;;;;;;;8.52;2.30;;;18.00;62.30;;;;;;10443342;28;20068;-25
2023/01/10 14:51:09;;;;;;;9.20;2.15;;;17.80;64.10;;;;;;10440316;28;20048;-25
2023/01/10 14:56:20;;;;;;;7.15;1.52;;;17.80;65.30;;;;;;10428023;28;20079;-26
2023/01/10 15:01:25;;;;;;;9.30;2.85;;;17.80;65.50;;;;;;10433273;28;20045;-26
2023/01/10 15:06:51;;;;;;;8.48;2.25;;;18.00;65.00;;;;;;10430677;28;20107;-25
2023/01/10 15:11:56;;;;;;;8.50;3.25;;;17.70;65.90;;;;;;10443907;28;20103;-24
2023/01/10 15:17:01;;;;;;;6.05;2.00;;;18.00;65.20;;;;;;10448901;28;20144;-25
2023/01/10 15:22:15;;;;;;;4.93;1.55;;;17.60;66.10;;;;;;10435649;28;20139;-25
2023/01/10 15:27:18;;;;;;;5.50;1.60;;;17.70;67.00;;;;;;10445830;28;20072;-24
2023/01/10 15:32:26;;;;;;;8.75;2.30;;;17.90;66.00;;;;;;10438445;28;20079;-25
2023/01/10 15:37:34;;;;;;;3.42;1.13;;;17.70;67.00;;;;;;10442400;28;20069;-27
2023/01/10 15:42:38;;;;;;;6.00;1.67;;;17.20;70.20;;;;;;10454180;28;20458;-24
2023/01/10 15:47:49;;;;;;;5.40;1.83;;;17.50;68.30;;;;;;10446515;28;20477;-25
2023/01/10 15:52:53;;;;;;;3.63;1.77;;;16.90;71.70;;;;;;10450604;28;20053;-25
2023/01/10 15:58:00;;;;;;;2.67;1.30;;;17.50;67.90;;;;;;10448007;28;20569;-27
2023/01/10 16:03:02;;;;;;;6.28;1.20;;;17.00;69.90;;;;;;10445038;28;20045;-23
2023/01/10 16:08:06;;;;;;;7.37;1.27;;;17.40;68.50;;;;;;10429492;28;20107;-26
2023/01/10 16:13:30;;;;;;;4.00;1.20;;;17.60;68.30;;;;;;10429511;28;20495;-25
2023/01/10 16:18:33;;;;;;;10.18;1.73;;;17.40;70.50;;;;;;10435359;28;20047;-26
2023/01/10 16:23:36;;;;;;;3.22;1.08;;;17.60;70.20;;;;;;10448732;28;20083;-27
2023/01/10 16:28:39;;;;;;;3.28;1.00;;;17.60;70.00;;;;;;10449755;28;20076;-24
2023/01/10 16:33:42;;;;;;;3.45;1.27;;;17.10;73.70;;;;;;10455476;28;20672;-27
2023/01/10 16:38:44;;;;;;;2.35;1.10;;;14.90;90.10;;;;;;10445969;28;20056;-25
2023/01/10 16:43:48;;;;;;;1.73;1.20;;;16.10;82.10;;;;;;10435397;28;20463;-28
2023/01/10 16:48:52;;;;;;;2.83;1.73;;;16.00;85.10;;;;;;10441925;28;20058;-26
2023/01/10 16:53:54;;;;;;;3.38;1.52;;;16.20;81.00;;;;;;10431830;28;20107;-25
2023/01/10 16:58:58;;;;;;;2.83;1.30;;;16.90;78.20;;;;;;10438378;28;20493;-25
2023/01/10 17:04:00;;;;;;;3.40;1.20;;;17.40;72.40;;;;;;10438060;28;20125;-26
2023/01/10 17:09:02;;;;;;;4.93;1.55;;;17.40;71.30;;;;;;10428582;28;20470;-24
2023/01/10 17:14:05;;;;;;;4.33;1.47;;;16.40;81.80;;;;;;10437857;28;20061;-26
2023/01/10 17:19:08;;;;;;;4.05;2.50;;;16.60;80.80;;;;;;10441725;28;21237;-25
2023/01/10 17:24:09;;;;;;;;;;;15.60;82.20;;;;;;10443232;28;20522;-27
2023/01/10 17:29:13;;;;;;;5.05;2.13;;;16.30;85.80;;;;;;10434630;28;20438;-25
2023/01/10 17:34:15;;;;;;;6.38;2.63;;;16.60;81.90;;;;;;10438694;28;20056;-27
2023/01/10 17:39:17;;;;;;;5.57;2.10;;;15.40;89.40;;;;;;10453606;28;20048;-24
2023/01/10 17:44:20;;;;;;;5.43;2.10;;;16.00;89.20;;;;;;10437019;28;20075;-25
2023/01/10 17:49:22;;;;;;;8.48;2.33;;;15.50;91.10;;;;;;10432048;28;20037;-25
2023/01/10 17:54:24;;;;;;;5.63;2.63;;;15.90;87.10;;;;;;10444695;28;20132;-25
2023/01/10 17:59:27;;;;;;;6.90;2.92;;;15.80;90.10;;;;;;10438815;28;20139;-24
2023/01/10 18:04:30;;;;;;;7.25;2.88;;;15.70;87.30;;;;;;10443228;28;20047;-23
2023/01/10 18:09:32;;;;;;;9.60;3.17;;;14.90;92.80;;;;;;10441956;28;20382;-25
2023/01/10 18:14:35;;;;;;;10.43;3.63;;;14.50;94.30;;;;;;10445312;28;20064;-25
2023/01/10 18:19:38;;;;;;;14.20;4.97;;;14.70;94.90;;;;;;10433584;28;21093;-28
2023/01/10 18:24:40;;;;;;;10.50;4.10;;;15.40;92.20;;;;;;10438669;28;20115;-25
2023/01/10 18:29:43;;;;;;;6.27;3.77;;;14.70;95.70;;;;;;10418308;28;20157;-24
2023/01/10 18:34:46;;;;;;;7.55;4.10;;;14.10;95.60;;;;;;10425246;28;20506;-26
2023/01/10 18:39:48;;;;;;;7.60;4.00;;;13.30;99.90;;;;;;10441232;28;20048;-23
2023/01/10 18:44:51;;;;;;;10.47;4.57;;;13.80;99.40;;;;;;10448329;28;20045;-25
2023/01/10 18:49:53;;;;;;;10.00;4.30;;;14.30;96.30;;;;;;10445848;28;20641;-26
2023/01/10 18:54:55;;;;;;;13.50;4.53;;;15.30;92.30;;;;;;10443624;28;20049;-25
2023/01/10 18:59:58;;;;;;;9.40;5.00;;;15.80;90.30;;;;;;10439952;28;20070;-28
2023/01/10 19:05:02;;;;;;;7.20;4.72;;;14.50;95.00;;;;;;10433233;28;20114;-26
2023/01/10 19:10:05;;;;;;;16.33;6.60;;;14.10;96.60;;;;;;10434394;28;20045;-28
2023/01/10 19:15:09;;;;;;;;;;;15.70;91.40;;;;;;10434760;28;20061;-26
2023/01/10 19:20:11;;;;;;;11.05;4.43;;;15.50;92.00;;;;;;10427899;28;19929;-33
2023/01/10 19:25:13;;;;;;;9.50;3.58;;;15.40;92.60;;;;;;10426182;28;20045;-25
2023/01/10 19:30:17;;;;;;;6.90;3.00;;;16.40;88.00;;;;;;10422930;28;20133;-27
2023/01/10 19:35:19;;;;;;;6.78;1.70;;;15.70;91.90;;;;;;10426777;28;20049;-25
2023/01/10 19:40:21;;;;;;;5.88;2.60;;;15.50;93.50;;;;;;10447797;28;20053;-29
2023/01/10 19:45:24;;;;;;;3.60;2.00;;;15.30;94.40;;;;;;10448517;28;20064;-33
2023/01/10 19:50:26;;;;;;;4.75;2.45;;;16.70;90.10;;;;;;10445370;28;20119;-24
2023/01/10 19:55:28;;;;;;;6.23;1.57;;;16.50;90.10;;;;;;10450606;28;20079;-24
2023/01/10 20:00:32;;;;;;;7.15;2.10;;;16.50;90.10;;;;;;10443519;28;20478;-25
2023/01/10 20:05:35;;;;;;;4.65;2.47;;;15.60;93.70;;;;;;10431567;28;20049;-25
2023/01/10 20:10:37;;;;;;;4.20;1.67;;;14.90;97.20;;;;;;10445503;28;20407;-26
2023/01/10 20:15:40;;;;;;;5.00;1.53;;;15.20;96.00;;;;;;10433454;28;20663;-25
2023/01/10 20:20:43;;;;;;;3.67;2.10;;;15.80;93.50;;;;;;10437692;28;20107;-25
2023/01/10 20:25:55;;;;;;;6.70;1.83;;;15.80;93.10;;;;;;10444945;28;20057;-24
2023/01/10 20:30:59;;;;;;;7.13;3.33;;;16.40;90.50;;;;;;10441462;28;20210;-26
2023/01/10 20:36:03;;;;;;;3.35;1.92;;;15.10;95.70;;;;;;10445325;28;20484;-24
2023/01/10 20:41:08;;;;;;;5.32;1.92;;;15.80;94.50;;;;;;10450060;28;20048;-27
2023/01/10 20:46:13;;;;;;;4.25;2.20;;;15.40;94.60;;;;;;10421820;28;20462;-28
2023/01/10 20:51:18;;;;;;;5.15;2.67;;;15.60;93.90;;;;;;10436882;28;20431;-24
2023/01/10 20:56:21;;;;;;;8.00;2.58;;;15.00;95.90;;;;;;10423742;28;20053;-24
2023/01/10 21:01:26;;;;;;;5.38;2.38;;;14.20;99.90;;;;;;10432419;28;20492;-24
2023/01/10 21:06:28;;;;;;;6.10;2.70;;;15.30;94.80;;;;;;10426268;28;20037;-25
2023/01/10 21:11:30;;;;;;;5.60;2.63;;;14.90;96.70;;;;;;10428514;28;20110;-26
2023/01/10 21:16:33;;;;;;;6.60;2.70;;;15.10;96.80;;;;;;10429409;28;20049;-25
2023/01/10 21:21:37;;;;;;;4.75;2.20;;;14.30;99.90;;;;;;10431897;28;20121;-24
2023/01/10 21:26:39;;;;;;;6.25;2.35;;;14.90;98.60;;;;;;10421416;28;20045;-24
2023/01/10 21:31:42;;;;;;;6.85;2.72;;;15.10;97.40;;;;;;10430189;28;20173;-24
2023/01/10 21:36:44;;;;;;;5.45;2.38;;;14.30;99.90;;;;;;10437407;28;20053;-27
2023/01/10 21:47:07;;;;;;;3.85;1.73;;;14.70;99.60;;;;;;10432544;28;20128;-27
2023/01/10 21:52:09;;;;;;;3.35;2.00;;;15.10;98.30;;;;;;10443070;28;20127;-27
2023/01/10 21:57:11;;;;;;;4.63;2.33;;;14.40;99.90;;;;;;10426277;28;20054;-26
2023/01/10 22:02:15;;;;;;;;;;;14.70;99.20;;;;;;10421487;28;20047;-25
2023/01/10 22:07:18;;;;;;;9.60;2.30;;;15.20;97.30;;;;;;10436170;28;19993;-23
2023/01/10 22:12:21;;;;;;;3.55;1.83;;;15.20;99.00;;;;;;10446599;28;20185;-25
2023/01/10 22:17:25;;;;;;;4.90;1.60;;;15.10;97.90;;;;;;10441818;28;20084;-24
2023/01/10 22:22:27;;;;;;;3.28;2.08;;;14.90;99.10;;;;;;10445031;28;20132;-24
2023/01/10 22:27:29;;;;;;;6.10;2.65;;;15.20;97.10;;;;;;10457701;28;20515;-24
2023/01/10 22:32:32;;;;;;;9.48;2.45;;;14.00;99.90;;;;;;10459536;28;20057;-26
2023/01/10 22:37:34;;;;;;;8.73;3.15;;;14.20;99.90;;;;;;10437147;28;20499;-25
2023/01/10 22:42:36;;;;;;;2.87;1.97;;;13.30;99.90;;;;;;10440295;28;20088;-23
2023/01/10 22:47:39;;;;;;;6.82;2.00;;;14.00;99.90;;;;;;10438987;28;20139;-25
2023/01/10 22:52:41;;;;;;;4.45;2.17;;;13.50;99.90;;;;;;10441172;28;20045;-24
2023/01/10 22:57:43;;;;;;;2.80;1.30;;;13.00;99.90;;;;;;10427743;28;20489;-24
2023/01/10 23:02:47;;;;;;;6.00;2.25;;;13.90;99.90;;;;;;10431574;28;20103;-27
2023/01/10 23:07:50;;;;;;;9.77;3.60;;;14.10;99.90;;;;;;10431038;28;20056;-24
2023/01/10 23:12:52;;;;;;;2.90;1.42;;;13.60;99.90;;;;;;10437037;28;20076;-26
2023/01/10 23:17:55;;;;;;;10.65;3.30;;;13.50;99.90;;;;;;10429604;28;20144;-25
2023/01/10 23:22:57;;;;;;;3.25;1.80;;;14.00;99.90;;;;;;10429922;28;20134;-27
2023/01/10 23:27:59;;;;;;;6.63;2.13;;;13.90;99.90;;;;;;10431348;28;20100;-24
2023/01/10 23:33:02;;;;;;;6.60;2.60;;;13.10;99.90;;;;;;10440417;28;20057;-24
2023/01/10 23:38:04;;;;;;;9.10;2.40;;;12.40;99.90;;;;;;10429612;28;20132;-24
2023/01/10 23:43:06;;;;;;;5.53;2.30;;;12.80;99.90;;;;;;10436764;28;20580;-25
2023/01/10 23:48:10;;;;;;;4.60;1.80;;;12.20;99.90;;;;;;10440514;28;20474;-25
2023/01/10 23:53:12;;;;;;;8.75;3.25;;;12.80;99.90;;;;;;10440061;28;20145;-24
2023/01/10 23:58:15;;;;;;;5.07;1.65;;;12.20;99.90;;;;;;10441377;28;20077;-25
